Terminal Aerodrome Forecast
Issued by NWS

Home | Current Version | Previous Version | Text Only | Print | Product List | Glossary On
Versions: 1 2 3 4 5 6 7 8 9 10 11 12 13 14 15 16 17 18 19 20
000
FTUS43 KDTX 242338
TAFPTK
TAF
KPTK 242338Z 2500/2524 20014G22KT P6SM -SHRA SCT025 BKN050
     FM250200 22012G20KT 4SM SHRA SCT010 OVC025
      TEMPO 2502/2504 2SM TSRA OVC008CB
     FM250600 25014G24KT P6SM SCT010 BKN080
     FM251000 24013G26KT P6SM -SHSN SCT012 BKN022
     FM251400 23014G28KT P6SM -SHSN OVC020
     FM252100 26015G28KT P6SM -SHSN OVC025=

USA.gov is the U.S. government's official web portal to all federal, state and local government web resources and services.